createdAt,value
2023-04-08T16:29:39.012Z,101512.47
2023-04-08T16:32:06.053Z,101487.59
2023-04-08T16:34:33.324Z,101502.38
2023-04-08T16:37:00.577Z,101494.03
2023-04-08T16:39:28.428Z,101502.25
2023-04-08T16:41:55.478Z,101490.34
2023-04-08T16:44:22.556Z,101491.16
2023-04-08T16:46:49.656Z,101488.53
2023-04-08T16:49:18.264Z,101504.75
2023-04-08T16:51:45.569Z,101499.41
2023-04-08T16:54:12.674Z,101512.22
2023-04-08T16:56:44.506Z,101491.56
2023-04-08T16:59:12.978Z,101500.09
2023-04-08T17:01:40.066Z,101505.22
2023-04-08T17:04:08.100Z,101502.19
2023-04-08T17:06:36.506Z,101518.06
2023-04-08T17:09:04.316Z,101514.59
2023-04-08T17:11:31.514Z,101515.97
2023-04-08T17:13:58.927Z,101504.09
2023-04-08T17:16:26.020Z,101501.75
2023-04-08T17:18:53.130Z,101503.84
2023-04-08T17:21:20.458Z,101501.03
2023-04-08T17:23:47.547Z,101507.34
2023-04-08T17:26:14.943Z,101527.19
2023-04-08T17:28:42.043Z,101520.31
2023-04-08T17:31:09.912Z,101519.47
2023-04-08T17:33:37.317Z,101505.25
2023-04-08T17:36:04.927Z,101509.00
2023-04-08T17:38:32.466Z,101517.38
2023-04-08T17:40:59.561Z,101529.97
2023-04-08T17:43:26.667Z,101520.19
2023-04-08T17:45:53.910Z,101512.03
2023-04-08T17:48:20.953Z,101523.22
2023-04-08T17:50:48.018Z,101526.28
2023-04-08T17:53:15.188Z,101531.88
2023-04-08T17:55:42.238Z,101542.97
2023-04-08T17:58:09.467Z,101533.97
2023-04-08T18:00:36.505Z,101544.94
2023-04-08T18:03:03.593Z,101545.19
2023-04-08T18:05:31.760Z,101572.94
2023-04-08T18:07:59.573Z,101542.56
2023-04-08T18:10:26.713Z,101564.94
2023-04-08T18:13:03.687Z,101550.47
2023-04-08T18:15:36.447Z,101568.66
2023-04-08T18:18:03.915Z,101556.78
2023-04-08T18:20:31.048Z,101565.03
2023-04-08T18:23:00.437Z,101557.66
2023-04-08T18:25:27.769Z,101563.63
2023-04-08T18:27:54.751Z,101572.50
2023-04-08T18:30:21.801Z,101573.41
2023-04-08T18:32:48.918Z,101575.59
2023-04-08T18:35:16.004Z,101580.78
2023-04-08T18:37:43.079Z,101565.09
2023-04-08T18:40:10.669Z,101578.25
2023-04-08T18:42:37.712Z,101566.22
2023-04-08T18:45:05.254Z,101575.88
2023-04-08T18:47:32.472Z,101575.88
2023-04-08T18:49:59.602Z,101572.47
2023-04-08T18:52:26.610Z,101578.16
2023-04-08T18:54:53.747Z,101588.16
2023-04-08T18:57:20.893Z,101589.03
2023-04-08T18:59:49.405Z,101566.75
2023-04-08T19:02:16.913Z,101577.06
2023-04-08T19:04:44.119Z,101587.78
2023-04-08T19:07:12.167Z,101588.47
2023-04-08T19:09:39.286Z,101583.75
2023-04-08T19:12:06.522Z,101588.50
2023-04-08T19:14:33.538Z,101602.16
2023-04-08T19:17:01.363Z,101584.34
2023-04-08T19:19:28.726Z,101594.16
2023-04-08T19:21:56.630Z,101598.97
2023-04-08T19:24:23.801Z,101617.72
2023-04-08T19:26:53.223Z,101605.75
2023-04-08T19:29:23.208Z,101610.84
2023-04-08T19:31:50.530Z,101624.69
2023-04-08T19:34:17.543Z,101631.59
2023-04-08T19:36:44.654Z,101626.66
2023-04-08T19:39:11.704Z,101636.53
2023-04-08T19:41:38.756Z,101641.63
2023-04-08T19:44:06.153Z,101644.75
2023-04-08T19:46:33.351Z,101641.47
2023-04-08T19:49:00.896Z,101632.78
2023-04-08T19:51:29.488Z,101633.97
2023-04-08T19:53:57.104Z,101643.09
2023-04-08T19:56:24.187Z,101639.53
2023-04-08T19:58:52.141Z,101650.81
2023-04-08T20:01:19.413Z,101649.22
2023-04-08T20:03:50.671Z,101663.16
2023-04-08T20:06:19.160Z,101663.00
2023-04-08T20:08:46.759Z,101645.44
2023-04-08T20:11:14.055Z,101657.75
2023-04-08T20:13:41.346Z,101647.91
2023-04-08T20:16:08.542Z,101650.88
2023-04-08T20:18:35.597Z,101655.63
2023-04-08T20:21:02.607Z,101645.44
2023-04-08T20:23:29.735Z,101650.91
2023-04-08T20:25:56.931Z,101640.88
2023-04-08T20:28:24.175Z,101651.56
2023-04-08T20:30:52.209Z,101652.38
2023-04-08T20:33:19.483Z,101646.50
2023-04-08T20:35:47.773Z,101656.97
2023-04-08T20:38:14.939Z,101650.09
2023-04-08T20:40:45.422Z,101635.50
2023-04-08T20:43:12.722Z,101638.28
2023-04-08T20:45:42.191Z,101632.88
2023-04-08T20:48:16.852Z,101647.47
2023-04-08T20:50:44.026Z,101635.97
2023-04-08T20:53:17.267Z,101651.25
2023-04-08T20:55:44.374Z,101646.50
2023-04-08T20:58:12.007Z,101638.59
2023-04-08T21:00:39.333Z,101650.72
2023-04-08T21:03:06.768Z,101637.50
2023-04-08T21:05:41.267Z,101643.41
2023-04-08T21:08:08.421Z,101647.00
2023-04-08T21:10:35.609Z,101645.19
2023-04-08T21:13:02.666Z,101651.25
2023-04-08T21:15:30.085Z,101649.44
2023-04-08T21:17:57.203Z,101645.53
2023-04-08T21:20:24.417Z,101638.44
2023-04-08T21:22:51.680Z,101652.06
2023-04-08T21:25:18.762Z,101626.97
2023-04-08T21:27:45.936Z,101655.69
2023-04-08T21:35:57.287Z,101642.91
2023-04-08T21:38:24.638Z,101647.47
2023-04-08T21:40:52.270Z,101648.31
2023-04-08T21:43:31.891Z,101642.41
2023-04-08T21:45:58.946Z,101633.53
2023-04-08T21:48:26.058Z,101636.47
2023-04-08T21:50:53.612Z,101650.75
2023-04-08T21:53:22.442Z,101636.66
2023-04-08T21:55:49.561Z,101660.44
2023-04-08T21:58:17.499Z,101636.66
2023-04-08T22:00:45.038Z,101654.38
2023-04-08T22:03:12.362Z,101646.16
2023-04-08T22:05:39.671Z,101642.22
2023-04-08T22:08:06.698Z,101647.66
2023-04-08T22:10:33.832Z,101645.53
2023-04-08T22:13:00.880Z,101638.47
2023-04-08T22:15:28.249Z,101630.41
2023-04-08T22:17:55.302Z,101621.56
2023-04-08T22:20:22.414Z,101622.19
2023-04-08T22:22:49.558Z,101628.28
2023-04-08T22:25:16.699Z,101636.63
2023-04-08T22:27:43.773Z,101627.91
2023-04-08T22:30:11.544Z,101630.03
2023-04-08T22:32:38.606Z,101627.91
2023-04-08T22:35:15.006Z,101627.06
2023-04-08T22:37:42.258Z,101644.63
2023-04-08T22:40:09.962Z,101640.38
2023-04-08T22:42:37.238Z,101632.47
2023-04-08T22:45:05.310Z,101644.78
2023-04-08T22:47:32.287Z,101628.84
2023-04-08T22:49:59.490Z,101644.75
2023-04-08T22:52:26.588Z,101635.91
2023-04-08T22:54:53.610Z,101627.19
2023-04-08T22:57:20.674Z,101648.00
2023-04-08T22:59:47.699Z,101646.78
2023-04-08T23:02:14.800Z,101638.28
2023-04-08T23:04:54.164Z,101642.06
2023-04-08T23:07:21.227Z,101636.13
2023-04-08T23:09:48.280Z,101633.53
2023-04-08T23:12:15.306Z,101623.38
2023-04-08T23:14:42.339Z,101625.63
2023-04-08T23:17:12.213Z,101630.41
2023-04-08T23:19:39.262Z,101632.84
2023-04-08T23:22:06.539Z,101648.75
2023-04-08T23:24:34.558Z,101639.06
2023-04-08T23:27:02.750Z,101657.78
2023-04-08T23:29:30.354Z,101654.31
2023-04-08T23:31:58.122Z,101661.00
2023-04-08T23:34:48.411Z,101665.63
2023-04-08T23:37:15.682Z,101654.13
2023-04-08T23:39:42.805Z,101663.34
2023-04-08T23:42:09.930Z,101654.31
2023-04-08T23:47:03.634Z,101640.84
2023-04-08T23:49:30.778Z,101657.53
2023-04-08T23:51:57.814Z,101665.44
2023-04-08T23:54:25.044Z,101648.19
2023-04-08T23:56:52.276Z,101657.03
2023-04-08T23:59:19.471Z,101655.22
